sensor_id;sensor_type;location;lat;lon;timestamp;P1;durP1;ratioP1;P2;durP2;ratioP2
19089;SDS011;9677;50.656;13.064;2023-05-20T00:02:00;9.90;;;9.00;;
19089;SDS011;9677;50.656;13.064;2023-05-20T00:04:28;10.00;;;9.00;;
19089;SDS011;9677;50.656;13.064;2023-05-20T00:06:56;9.77;;;8.87;;
19089;SDS011;9677;50.656;13.064;2023-05-20T00:09:25;9.73;;;8.83;;
19089;SDS011;9677;50.656;13.064;2023-05-20T00:11:54;9.80;;;8.90;;
19089;SDS011;9677;50.656;13.064;2023-05-20T00:14:22;10.03;;;9.03;;
19089;SDS011;9677;50.656;13.064;2023-05-20T00:16:50;9.60;;;8.70;;
19089;SDS011;9677;50.656;13.064;2023-05-20T00:19:19;9.90;;;8.97;;
19089;SDS011;9677;50.656;13.064;2023-05-20T00:21:47;9.87;;;8.97;;
19089;SDS011;9677;50.656;13.064;2023-05-20T00:24:15;9.77;;;8.87;;
19089;SDS011;9677;50.656;13.064;2023-05-20T00:26:44;9.90;;;9.00;;
19089;SDS011;9677;50.656;13.064;2023-05-20T00:29:12;10.00;;;9.07;;
19089;SDS011;9677;50.656;13.064;2023-05-20T00:31:40;9.77;;;8.87;;
19089;SDS011;9677;50.656;13.064;2023-05-20T00:34:08;10.20;;;9.20;;
19089;SDS011;9677;50.656;13.064;2023-05-20T00:36:36;10.50;;;9.50;;
19089;SDS011;9677;50.656;13.064;2023-05-20T00:39:04;9.80;;;8.90;;
19089;SDS011;9677;50.656;13.064;2023-05-20T00:41:32;10.37;;;9.37;;
19089;SDS011;9677;50.656;13.064;2023-05-20T00:44:03;10.23;;;9.23;;
19089;SDS011;9677;50.656;13.064;2023-05-20T00:46:31;12.47;;;9.27;;
19089;SDS011;9677;50.656;13.064;2023-05-20T00:49:00;10.47;;;9.37;;
19089;SDS011;9677;50.656;13.064;2023-05-20T00:51:28;10.23;;;9.23;;
19089;SDS011;9677;50.656;13.064;2023-05-20T00:53:57;10.23;;;9.23;;
19089;SDS011;9677;50.656;13.064;2023-05-20T00:56:25;10.40;;;9.40;;
19089;SDS011;9677;50.656;13.064;2023-05-20T00:58:53;10.20;;;9.30;;
19089;SDS011;9677;50.656;13.064;2023-05-20T01:01:23;10.60;;;9.60;;
19089;SDS011;9677;50.656;13.064;2023-05-20T01:03:51;10.90;;;9.63;;
19089;SDS011;9677;50.656;13.064;2023-05-20T01:06:19;10.60;;;9.60;;
19089;SDS011;9677;50.656;13.064;2023-05-20T01:08:47;10.90;;;9.90;;
19089;SDS011;9677;50.656;13.064;2023-05-20T01:11:18;11.07;;;9.97;;
19089;SDS011;9677;50.656;13.064;2023-05-20T01:13:53;11.40;;;10.30;;
19089;SDS011;9677;50.656;13.064;2023-05-20T01:16:26;10.83;;;9.83;;
19089;SDS011;9677;50.656;13.064;2023-05-20T01:18:59;10.70;;;9.70;;
19089;SDS011;9677;50.656;13.064;2023-05-20T01:21:30;10.73;;;9.73;;
19089;SDS011;9677;50.656;13.064;2023-05-20T01:24:01;11.27;;;10.17;;
19089;SDS011;9677;50.656;13.064;2023-05-20T01:26:32;11.10;;;9.90;;
19089;SDS011;9677;50.656;13.064;2023-05-20T01:29:03;11.10;;;10.00;;
19089;SDS011;9677;50.656;13.064;2023-05-20T01:31:32;10.50;;;9.50;;
19089;SDS011;9677;50.656;13.064;2023-05-20T01:34:04;10.60;;;9.60;;
19089;SDS011;9677;50.656;13.064;2023-05-20T01:36:33;10.97;;;9.90;;
19089;SDS011;9677;50.656;13.064;2023-05-20T01:39:02;10.50;;;9.50;;
19089;SDS011;9677;50.656;13.064;2023-05-20T01:41:31;10.90;;;9.80;;
19089;SDS011;9677;50.656;13.064;2023-05-20T01:44:02;11.10;;;10.00;;
19089;SDS011;9677;50.656;13.064;2023-05-20T01:46:31;10.67;;;9.67;;
19089;SDS011;9677;50.656;13.064;2023-05-20T01:49:01;10.40;;;9.40;;
19089;SDS011;9677;50.656;13.064;2023-05-20T01:51:29;11.53;;;9.80;;
19089;SDS011;9677;50.656;13.064;2023-05-20T01:53:58;11.07;;;9.97;;
19089;SDS011;9677;50.656;13.064;2023-05-20T01:56:28;11.83;;;10.63;;
19089;SDS011;9677;50.656;13.064;2023-05-20T01:58:57;10.93;;;9.73;;
19089;SDS011;9677;50.656;13.064;2023-05-20T02:01:26;11.27;;;10.17;;
19089;SDS011;9677;50.656;13.064;2023-05-20T02:03:54;11.00;;;9.90;;
19089;SDS011;9677;50.656;13.064;2023-05-20T02:06:22;11.13;;;10.03;;
19089;SDS011;9677;50.656;13.064;2023-05-20T02:08:50;11.10;;;10.00;;
19089;SDS011;9677;50.656;13.064;2023-05-20T02:11:18;10.90;;;9.90;;
19089;SDS011;9677;50.656;13.064;2023-05-20T02:13:47;10.90;;;9.90;;
19089;SDS011;9677;50.656;13.064;2023-05-20T02:16:16;11.27;;;10.07;;
19089;SDS011;9677;50.656;13.064;2023-05-20T02:18:44;11.40;;;10.27;;
19089;SDS011;9677;50.656;13.064;2023-05-20T02:21:15;11.30;;;10.20;;
19089;SDS011;9677;50.656;13.064;2023-05-20T02:23:43;10.90;;;9.80;;
19089;SDS011;9677;50.656;13.064;2023-05-20T02:26:11;11.27;;;10.13;;
19089;SDS011;9677;50.656;13.064;2023-05-20T02:28:39;11.23;;;10.10;;
19089;SDS011;9677;50.656;13.064;2023-05-20T02:31:13;11.23;;;10.13;;
19089;SDS011;9677;50.656;13.064;2023-05-20T02:33:42;10.93;;;9.90;;
19089;SDS011;9677;50.656;13.064;2023-05-20T02:36:10;11.27;;;10.17;;
19089;SDS011;9677;50.656;13.064;2023-05-20T02:38:38;10.87;;;9.80;;
19089;SDS011;9677;50.656;13.064;2023-05-20T02:41:09;11.30;;;10.20;;
19089;SDS011;9677;50.656;13.064;2023-05-20T02:43:37;11.63;;;10.43;;
19089;SDS011;9677;50.656;13.064;2023-05-20T02:46:05;11.47;;;10.37;;
19089;SDS011;9677;50.656;13.064;2023-05-20T02:48:35;11.00;;;9.90;;
19089;SDS011;9677;50.656;13.064;2023-05-20T02:51:04;10.80;;;9.80;;
19089;SDS011;9677;50.656;13.064;2023-05-20T02:53:32;11.20;;;10.10;;
19089;SDS011;9677;50.656;13.064;2023-05-20T02:56:00;11.43;;;10.23;;
19089;SDS011;9677;50.656;13.064;2023-05-20T02:58:29;11.13;;;10.03;;
19089;SDS011;9677;50.656;13.064;2023-05-20T03:00:58;11.20;;;10.10;;
19089;SDS011;9677;50.656;13.064;2023-05-20T03:03:26;11.00;;;9.90;;
19089;SDS011;9677;50.656;13.064;2023-05-20T03:05:56;11.17;;;10.07;;
19089;SDS011;9677;50.656;13.064;2023-05-20T03:08:24;11.17;;;10.07;;
19089;SDS011;9677;50.656;13.064;2023-05-20T03:10:52;11.13;;;10.03;;
19089;SDS011;9677;50.656;13.064;2023-05-20T03:13:20;10.93;;;9.83;;
19089;SDS011;9677;50.656;13.064;2023-05-20T03:15:49;11.00;;;9.90;;
19089;SDS011;9677;50.656;13.064;2023-05-20T03:18:17;10.60;;;9.60;;
19089;SDS011;9677;50.656;13.064;2023-05-20T03:20:45;10.43;;;9.43;;
19089;SDS011;9677;50.656;13.064;2023-05-20T03:23:14;11.20;;;10.00;;
19089;SDS011;9677;50.656;13.064;2023-05-20T03:25:43;10.63;;;9.53;;
19089;SDS011;9677;50.656;13.064;2023-05-20T03:28:11;10.67;;;9.63;;
19089;SDS011;9677;50.656;13.064;2023-05-20T03:30:39;10.67;;;9.67;;
19089;SDS011;9677;50.656;13.064;2023-05-20T03:33:08;11.87;;;10.20;;
19089;SDS011;9677;50.656;13.064;2023-05-20T03:35:37;10.60;;;9.60;;
19089;SDS011;9677;50.656;13.064;2023-05-20T03:38:05;11.03;;;10.00;;
19089;SDS011;9677;50.656;13.064;2023-05-20T03:40:37;10.97;;;9.87;;
19089;SDS011;9677;50.656;13.064;2023-05-20T03:43:05;10.63;;;9.63;;
19089;SDS011;9677;50.656;13.064;2023-05-20T03:45:33;11.10;;;10.00;;
19089;SDS011;9677;50.656;13.064;2023-05-20T03:48:04;11.00;;;9.90;;
19089;SDS011;9677;50.656;13.064;2023-05-20T03:50:34;10.93;;;9.80;;
19089;SDS011;9677;50.656;13.064;2023-05-20T03:53:02;10.30;;;9.30;;
19089;SDS011;9677;50.656;13.064;2023-05-20T03:55:37;10.50;;;9.50;;
19089;SDS011;9677;50.656;13.064;2023-05-20T03:58:06;10.63;;;9.63;;
19089;SDS011;9677;50.656;13.064;2023-05-20T04:00:34;11.10;;;10.00;;
19089;SDS011;9677;50.656;13.064;2023-05-20T04:03:02;11.07;;;9.97;;
19089;SDS011;9677;50.656;13.064;2023-05-20T04:05:31;11.17;;;10.07;;
19089;SDS011;9677;50.656;13.064;2023-05-20T04:08:01;10.63;;;9.63;;
19089;SDS011;9677;50.656;13.064;2023-05-20T04:10:30;10.90;;;9.80;;
19089;SDS011;9677;50.656;13.064;2023-05-20T04:13:00;10.87;;;9.87;;
19089;SDS011;9677;50.656;13.064;2023-05-20T04:15:28;10.70;;;9.70;;
19089;SDS011;9677;50.656;13.064;2023-05-20T04:17:57;10.30;;;9.30;;
19089;SDS011;9677;50.656;13.064;2023-05-20T04:20:26;10.80;;;9.70;;
19089;SDS011;9677;50.656;13.064;2023-05-20T04:22:56;10.90;;;9.90;;
19089;SDS011;9677;50.656;13.064;2023-05-20T04:25:24;10.40;;;9.40;;
19089;SDS011;9677;50.656;13.064;2023-05-20T04:27:53;10.20;;;9.30;;
19089;SDS011;9677;50.656;13.064;2023-05-20T04:30:24;10.33;;;9.20;;
19089;SDS011;9677;50.656;13.064;2023-05-20T04:32:52;10.77;;;9.77;;
19089;SDS011;9677;50.656;13.064;2023-05-20T04:35:21;10.80;;;9.80;;
19089;SDS011;9677;50.656;13.064;2023-05-20T04:37:52;10.43;;;9.43;;
19089;SDS011;9677;50.656;13.064;2023-05-20T04:40:21;10.83;;;9.73;;
19089;SDS011;9677;50.656;13.064;2023-05-20T04:42:49;9.97;;;9.00;;
19089;SDS011;9677;50.656;13.064;2023-05-20T04:45:18;11.43;;;9.67;;
19089;SDS011;9677;50.656;13.064;2023-05-20T04:47:50;10.60;;;9.60;;
19089;SDS011;9677;50.656;13.064;2023-05-20T04:50:18;9.90;;;9.00;;
19089;SDS011;9677;50.656;13.064;2023-05-20T04:52:47;10.40;;;9.40;;
19089;SDS011;9677;50.656;13.064;2023-05-20T04:55:16;10.40;;;9.30;;
19089;SDS011;9677;50.656;13.064;2023-05-20T04:57:45;10.30;;;9.30;;
19089;SDS011;9677;50.656;13.064;2023-05-20T05:00:13;10.50;;;9.50;;
19089;SDS011;9677;50.656;13.064;2023-05-20T05:02:41;10.40;;;9.40;;
19089;SDS011;9677;50.656;13.064;2023-05-20T05:05:11;10.37;;;9.37;;
19089;SDS011;9677;50.656;13.064;2023-05-20T05:07:39;10.30;;;9.30;;
19089;SDS011;9677;50.656;13.064;2023-05-20T05:10:07;10.77;;;9.67;;
19089;SDS011;9677;50.656;13.064;2023-05-20T05:12:36;10.33;;;9.37;;
19089;SDS011;9677;50.656;13.064;2023-05-20T05:15:05;10.40;;;9.40;;
19089;SDS011;9677;50.656;13.064;2023-05-20T05:17:34;10.50;;;9.50;;
19089;SDS011;9677;50.656;13.064;2023-05-20T05:20:03;10.60;;;9.60;;
19089;SDS011;9677;50.656;13.064;2023-05-20T05:22:35;10.30;;;9.40;;
19089;SDS011;9677;50.656;13.064;2023-05-20T05:25:06;10.60;;;9.40;;
19089;SDS011;9677;50.656;13.064;2023-05-20T05:27:34;10.60;;;9.60;;
19089;SDS011;9677;50.656;13.064;2023-05-20T05:30:03;10.30;;;9.30;;
19089;SDS011;9677;50.656;13.064;2023-05-20T05:32:33;11.00;;;10.00;;
19089;SDS011;9677;50.656;13.064;2023-05-20T05:35:04;10.70;;;9.60;;
19089;SDS011;9677;50.656;13.064;2023-05-20T05:37:35;10.43;;;9.37;;
19089;SDS011;9677;50.656;13.064;2023-05-20T05:40:04;10.57;;;9.57;;
19089;SDS011;9677;50.656;13.064;2023-05-20T05:42:34;11.50;;;9.90;;
19089;SDS011;9677;50.656;13.064;2023-05-20T05:45:03;11.47;;;10.27;;
19089;SDS011;9677;50.656;13.064;2023-05-20T05:47:32;10.80;;;9.80;;
19089;SDS011;9677;50.656;13.064;2023-05-20T05:50:00;11.10;;;10.00;;
19089;SDS011;9677;50.656;13.064;2023-05-20T05:52:31;11.40;;;10.23;;
19089;SDS011;9677;50.656;13.064;2023-05-20T05:55:02;10.87;;;9.70;;
19089;SDS011;9677;50.656;13.064;2023-05-20T05:57:31;10.90;;;9.87;;
19089;SDS011;9677;50.656;13.064;2023-05-20T06:00:00;10.80;;;9.70;;
19089;SDS011;9677;50.656;13.064;2023-05-20T06:02:43;10.50;;;9.50;;
19089;SDS011;9677;50.656;13.064;2023-05-20T06:05:19;11.10;;;10.00;;
19089;SDS011;9677;50.656;13.064;2023-05-20T06:07:47;10.93;;;9.83;;
19089;SDS011;9677;50.656;13.064;2023-05-20T06:10:17;10.50;;;9.40;;
19089;SDS011;9677;50.656;13.064;2023-05-20T06:12:45;11.00;;;9.90;;
19089;SDS011;9677;50.656;13.064;2023-05-20T06:18:34;11.07;;;9.97;;
19089;SDS011;9677;50.656;13.064;2023-05-20T06:21:03;11.23;;;10.13;;
19089;SDS011;9677;50.656;13.064;2023-05-20T06:23:31;11.43;;;10.33;;
19089;SDS011;9677;50.656;13.064;2023-05-20T06:26:04;11.17;;;10.07;;
19089;SDS011;9677;50.656;13.064;2023-05-20T06:28:32;11.43;;;10.23;;
19089;SDS011;9677;50.656;13.064;2023-05-20T06:31:01;11.70;;;10.60;;
19089;SDS011;9677;50.656;13.064;2023-05-20T06:33:31;11.50;;;10.30;;
19089;SDS011;9677;50.656;13.064;2023-05-20T06:36:04;11.40;;;10.30;;
19089;SDS011;9677;50.656;13.064;2023-05-20T06:38:33;10.87;;;9.70;;
19089;SDS011;9677;50.656;13.064;2023-05-20T06:41:01;11.40;;;10.30;;
19089;SDS011;9677;50.656;13.064;2023-05-20T06:43:32;11.00;;;9.90;;
19089;SDS011;9677;50.656;13.064;2023-05-20T06:46:07;11.53;;;10.43;;
19089;SDS011;9677;50.656;13.064;2023-05-20T06:48:44;11.37;;;10.27;;
19089;SDS011;9677;50.656;13.064;2023-05-20T06:51:12;11.50;;;10.40;;
19089;SDS011;9677;50.656;13.064;2023-05-20T06:53:44;11.73;;;10.60;;
19089;SDS011;9677;50.656;13.064;2023-05-20T06:56:13;11.50;;;10.40;;
19089;SDS011;9677;50.656;13.064;2023-05-20T06:58:43;10.70;;;9.70;;
19089;SDS011;9677;50.656;13.064;2023-05-20T07:01:11;14.23;;;9.97;;
19089;SDS011;9677;50.656;13.064;2023-05-20T07:03:42;11.77;;;9.93;;
19089;SDS011;9677;50.656;13.064;2023-05-20T07:06:10;11.03;;;10.00;;
19089;SDS011;9677;50.656;13.064;2023-05-20T07:08:38;12.00;;;10.90;;
19089;SDS011;9677;50.656;13.064;2023-05-20T07:11:07;11.40;;;10.20;;
19089;SDS011;9677;50.656;13.064;2023-05-20T07:13:36;11.40;;;10.30;;
19089;SDS011;9677;50.656;13.064;2023-05-20T07:16:06;11.20;;;10.10;;
19089;SDS011;9677;50.656;13.064;2023-05-20T07:18:36;10.90;;;9.80;;
19089;SDS011;9677;50.656;13.064;2023-05-20T07:21:05;11.63;;;10.07;;
19089;SDS011;9677;50.656;13.064;2023-05-20T07:23:41;11.10;;;10.00;;
19089;SDS011;9677;50.656;13.064;2023-05-20T07:26:09;11.30;;;10.10;;
19089;SDS011;9677;50.656;13.064;2023-05-20T07:28:37;11.50;;;10.30;;
19089;SDS011;9677;50.656;13.064;2023-05-20T07:31:07;11.30;;;10.10;;
19089;SDS011;9677;50.656;13.064;2023-05-20T07:33:40;11.07;;;9.97;;
19089;SDS011;9677;50.656;13.064;2023-05-20T07:36:09;11.20;;;10.10;;
19089;SDS011;9677;50.656;13.064;2023-05-20T07:38:38;10.37;;;9.30;;
19089;SDS011;9677;50.656;13.064;2023-05-20T07:41:22;10.53;;;9.50;;
19089;SDS011;9677;50.656;13.064;2023-05-20T07:43:50;11.10;;;10.00;;
19089;SDS011;9677;50.656;13.064;2023-05-20T07:46:19;11.77;;;10.50;;
19089;SDS011;9677;50.656;13.064;2023-05-20T07:48:48;10.93;;;9.83;;
19089;SDS011;9677;50.656;13.064;2023-05-20T07:51:16;10.60;;;9.50;;
19089;SDS011;9677;50.656;13.064;2023-05-20T07:53:44;10.93;;;9.83;;
19089;SDS011;9677;50.656;13.064;2023-05-20T07:56:12;10.97;;;9.90;;
19089;SDS011;9677;50.656;13.064;2023-05-20T07:58:41;10.67;;;9.67;;
19089;SDS011;9677;50.656;13.064;2023-05-20T08:01:09;10.80;;;9.73;;
19089;SDS011;9677;50.656;13.064;2023-05-20T08:03:38;10.83;;;9.73;;
19089;SDS011;9677;50.656;13.064;2023-05-20T08:06:11;11.13;;;9.63;;
19089;SDS011;9677;50.656;13.064;2023-05-20T08:08:41;10.50;;;9.50;;
19089;SDS011;9677;50.656;13.064;2023-05-20T08:11:17;11.13;;;10.03;;
19089;SDS011;9677;50.656;13.064;2023-05-20T08:13:45;11.27;;;10.17;;
19089;SDS011;9677;50.656;13.064;2023-05-20T08:16:14;10.73;;;9.63;;
19089;SDS011;9677;50.656;13.064;2023-05-20T08:18:45;11.43;;;10.00;;
19089;SDS011;9677;50.656;13.064;2023-05-20T08:21:13;11.10;;;10.00;;
19089;SDS011;9677;50.656;13.064;2023-05-20T08:23:42;12.40;;;10.37;;
19089;SDS011;9677;50.656;13.064;2023-05-20T08:26:10;11.30;;;10.20;;
19089;SDS011;9677;50.656;13.064;2023-05-20T08:28:40;11.90;;;10.60;;
19089;SDS011;9677;50.656;13.064;2023-05-20T08:31:08;10.70;;;9.60;;
19089;SDS011;9677;50.656;13.064;2023-05-20T08:33:36;11.13;;;9.93;;
19089;SDS011;9677;50.656;13.064;2023-05-20T08:36:06;11.03;;;9.93;;
19089;SDS011;9677;50.656;13.064;2023-05-20T08:38:34;11.30;;;10.20;;
19089;SDS011;9677;50.656;13.064;2023-05-20T08:41:02;11.47;;;10.27;;
19089;SDS011;9677;50.656;13.064;2023-05-20T08:43:31;11.67;;;10.47;;
19089;SDS011;9677;50.656;13.064;2023-05-20T08:46:00;11.93;;;10.73;;
19089;SDS011;9677;50.656;13.064;2023-05-20T08:48:33;11.77;;;10.57;;
19089;SDS011;9677;50.656;13.064;2023-05-20T08:51:02;11.60;;;10.40;;
19089;SDS011;9677;50.656;13.064;2023-05-20T08:53:32;11.33;;;10.13;;
19089;SDS011;9677;50.656;13.064;2023-05-20T08:56:00;11.13;;;10.03;;
19089;SDS011;9677;50.656;13.064;2023-05-20T08:58:29;11.47;;;10.23;;
19089;SDS011;9677;50.656;13.064;2023-05-20T09:00:58;11.10;;;10.00;;
19089;SDS011;9677;50.656;13.064;2023-05-20T09:03:27;11.40;;;10.23;;
19089;SDS011;9677;50.656;13.064;2023-05-20T09:06:02;11.60;;;10.40;;
19089;SDS011;9677;50.656;13.064;2023-05-20T09:08:33;11.57;;;10.37;;
19089;SDS011;9677;50.656;13.064;2023-05-20T09:11:01;12.43;;;11.17;;
19089;SDS011;9677;50.656;13.064;2023-05-20T09:13:29;11.60;;;10.40;;
19089;SDS011;9677;50.656;13.064;2023-05-20T09:15:59;11.10;;;10.00;;
19089;SDS011;9677;50.656;13.064;2023-05-20T09:18:28;11.87;;;10.67;;
19089;SDS011;9677;50.656;13.064;2023-05-20T09:20:57;12.80;;;10.60;;
19089;SDS011;9677;50.656;13.064;2023-05-20T09:23:32;11.63;;;10.43;;
19089;SDS011;9677;50.656;13.064;2023-05-20T09:26:03;12.10;;;10.90;;
19089;SDS011;9677;50.656;13.064;2023-05-20T09:28:32;11.83;;;10.63;;
19089;SDS011;9677;50.656;13.064;2023-05-20T09:31:04;11.97;;;10.73;;
19089;SDS011;9677;50.656;13.064;2023-05-20T09:33:35;12.30;;;11.00;;
19089;SDS011;9677;50.656;13.064;2023-05-20T09:36:04;11.70;;;10.60;;
19089;SDS011;9677;50.656;13.064;2023-05-20T09:38:37;11.27;;;10.17;;
19089;SDS011;9677;50.656;13.064;2023-05-20T09:41:08;10.90;;;9.80;;
19089;SDS011;9677;50.656;13.064;2023-05-20T09:43:39;10.27;;;9.27;;
19089;SDS011;9677;50.656;13.064;2023-05-20T09:46:07;10.50;;;9.50;;
19089;SDS011;9677;50.656;13.064;2023-05-20T09:48:36;10.73;;;9.70;;
19089;SDS011;9677;50.656;13.064;2023-05-20T09:51:05;10.10;;;9.20;;
19089;SDS011;9677;50.656;13.064;2023-05-20T09:53:33;10.47;;;9.37;;
19089;SDS011;9677;50.656;13.064;2023-05-20T09:56:04;10.60;;;9.50;;
19089;SDS011;9677;50.656;13.064;2023-05-20T09:58:37;10.60;;;9.50;;
19089;SDS011;9677;50.656;13.064;2023-05-20T10:01:06;10.53;;;9.53;;
19089;SDS011;9677;50.656;13.064;2023-05-20T10:03:35;11.00;;;9.50;;
19089;SDS011;9677;50.656;13.064;2023-05-20T10:06:13;10.40;;;9.40;;
19089;SDS011;9677;50.656;13.064;2023-05-20T10:09:04;10.20;;;9.20;;
19089;SDS011;9677;50.656;13.064;2023-05-20T10:11:47;11.10;;;10.00;;
19089;SDS011;9677;50.656;13.064;2023-05-20T10:14:29;10.37;;;9.37;;
19089;SDS011;9677;50.656;13.064;2023-05-20T10:17:09;10.47;;;9.37;;
19089;SDS011;9677;50.656;13.064;2023-05-20T10:19:56;10.00;;;9.10;;
19089;SDS011;9677;50.656;13.064;2023-05-20T10:22:28;10.93;;;9.83;;
19089;SDS011;9677;50.656;13.064;2023-05-20T10:24:58;10.47;;;9.47;;
19089;SDS011;9677;50.656;13.064;2023-05-20T10:27:27;10.93;;;9.83;;
19089;SDS011;9677;50.656;13.064;2023-05-20T10:29:55;11.13;;;9.87;;
19089;SDS011;9677;50.656;13.064;2023-05-20T10:32:24;10.30;;;9.30;;
19089;SDS011;9677;50.656;13.064;2023-05-20T10:34:57;10.80;;;9.70;;
19089;SDS011;9677;50.656;13.064;2023-05-20T10:37:28;11.20;;;10.10;;
19089;SDS011;9677;50.656;13.064;2023-05-20T10:40:04;11.00;;;9.90;;
19089;SDS011;9677;50.656;13.064;2023-05-20T10:42:34;11.00;;;9.90;;
19089;SDS011;9677;50.656;13.064;2023-05-20T10:45:02;10.63;;;9.63;;
19089;SDS011;9677;50.656;13.064;2023-05-20T10:47:32;10.37;;;9.37;;
19089;SDS011;9677;50.656;13.064;2023-05-20T10:50:01;10.70;;;9.60;;
19089;SDS011;9677;50.656;13.064;2023-05-20T10:52:32;10.80;;;9.70;;
19089;SDS011;9677;50.656;13.064;2023-05-20T10:55:00;10.53;;;9.53;;
19089;SDS011;9677;50.656;13.064;2023-05-20T10:57:31;10.77;;;9.77;;
19089;SDS011;9677;50.656;13.064;2023-05-20T11:00:01;10.10;;;9.10;;
19089;SDS011;9677;50.656;13.064;2023-05-20T11:02:33;10.57;;;9.57;;
19089;SDS011;9677;50.656;13.064;2023-05-20T11:05:02;10.70;;;9.60;;
19089;SDS011;9677;50.656;13.064;2023-05-20T11:07:32;10.80;;;9.70;;
19089;SDS011;9677;50.656;13.064;2023-05-20T11:10:00;10.67;;;9.57;;
19089;SDS011;9677;50.656;13.064;2023-05-20T11:12:29;10.70;;;9.70;;
19089;SDS011;9677;50.656;13.064;2023-05-20T11:15:00;13.33;;;9.80;;
19089;SDS011;9677;50.656;13.064;2023-05-20T11:17:29;11.20;;;10.10;;
19089;SDS011;9677;50.656;13.064;2023-05-20T11:19:57;10.70;;;9.70;;
19089;SDS011;9677;50.656;13.064;2023-05-20T11:22:26;10.97;;;9.87;;
19089;SDS011;9677;50.656;13.064;2023-05-20T11:24:54;11.07;;;9.97;;
19089;SDS011;9677;50.656;13.064;2023-05-20T11:27:22;10.97;;;9.83;;
19089;SDS011;9677;50.656;13.064;2023-05-20T11:29:51;11.27;;;10.17;;
19089;SDS011;9677;50.656;13.064;2023-05-20T11:32:19;10.90;;;9.90;;
19089;SDS011;9677;50.656;13.064;2023-05-20T11:34:49;11.40;;;10.20;;
19089;SDS011;9677;50.656;13.064;2023-05-20T11:37:18;10.40;;;9.40;;
19089;SDS011;9677;50.656;13.064;2023-05-20T11:39:47;10.70;;;9.60;;
19089;SDS011;9677;50.656;13.064;2023-05-20T11:42:15;10.40;;;9.40;;
19089;SDS011;9677;50.656;13.064;2023-05-20T11:44:43;10.80;;;9.70;;
19089;SDS011;9677;50.656;13.064;2023-05-20T11:47:13;11.70;;;9.40;;
19089;SDS011;9677;50.656;13.064;2023-05-20T11:49:46;10.10;;;9.10;;
19089;SDS011;9677;50.656;13.064;2023-05-20T11:52:15;11.00;;;9.80;;
19089;SDS011;9677;50.656;13.064;2023-05-20T11:54:43;10.40;;;9.40;;
19089;SDS011;9677;50.656;13.064;2023-05-20T11:57:11;10.50;;;9.50;;
19089;SDS011;9677;50.656;13.064;2023-05-20T11:59:39;10.97;;;9.87;;
19089;SDS011;9677;50.656;13.064;2023-05-20T12:02:07;11.20;;;10.00;;
19089;SDS011;9677;50.656;13.064;2023-05-20T12:04:37;10.20;;;9.20;;
19089;SDS011;9677;50.656;13.064;2023-05-20T12:07:05;10.90;;;9.80;;
19089;SDS011;9677;50.656;13.064;2023-05-20T12:09:34;11.47;;;9.50;;
19089;SDS011;9677;50.656;13.064;2023-05-20T12:12:02;10.17;;;9.20;;
19089;SDS011;9677;50.656;13.064;2023-05-20T12:14:31;10.37;;;9.37;;
19089;SDS011;9677;50.656;13.064;2023-05-20T12:16:59;10.40;;;9.30;;
19089;SDS011;9677;50.656;13.064;2023-05-20T12:19:27;10.57;;;9.57;;
19089;SDS011;9677;50.656;13.064;2023-05-20T12:21:57;10.47;;;9.43;;
19089;SDS011;9677;50.656;13.064;2023-05-20T12:24:27;10.60;;;9.60;;
19089;SDS011;9677;50.656;13.064;2023-05-20T12:26:55;11.10;;;9.13;;
19089;SDS011;9677;50.656;13.064;2023-05-20T12:29:23;10.77;;;9.67;;
19089;SDS011;9677;50.656;13.064;2023-05-20T12:31:51;11.00;;;9.90;;
19089;SDS011;9677;50.656;13.064;2023-05-20T12:34:19;11.60;;;10.00;;
19089;SDS011;9677;50.656;13.064;2023-05-20T12:36:47;10.93;;;9.63;;
19089;SDS011;9677;50.656;13.064;2023-05-20T12:39:17;10.60;;;9.60;;
19089;SDS011;9677;50.656;13.064;2023-05-20T12:41:46;10.83;;;9.73;;
19089;SDS011;9677;50.656;13.064;2023-05-20T12:44:14;11.03;;;9.93;;
19089;SDS011;9677;50.656;13.064;2023-05-20T12:46:42;10.97;;;9.87;;
19089;SDS011;9677;50.656;13.064;2023-05-20T12:49:10;11.20;;;10.10;;
19089;SDS011;9677;50.656;13.064;2023-05-20T12:51:38;11.30;;;10.20;;
19089;SDS011;9677;50.656;13.064;2023-05-20T12:54:06;10.67;;;9.67;;
19089;SDS011;9677;50.656;13.064;2023-05-20T12:56:36;10.70;;;9.70;;
19089;SDS011;9677;50.656;13.064;2023-05-20T12:59:05;11.60;;;10.50;;
19089;SDS011;9677;50.656;13.064;2023-05-20T13:01:34;13.27;;;9.90;;
19089;SDS011;9677;50.656;13.064;2023-05-20T13:04:03;11.00;;;9.90;;
19089;SDS011;9677;50.656;13.064;2023-05-20T13:06:32;11.03;;;9.93;;
19089;SDS011;9677;50.656;13.064;2023-05-20T13:09:00;11.10;;;9.90;;
19089;SDS011;9677;50.656;13.064;2023-05-20T13:11:28;10.63;;;9.63;;
19089;SDS011;9677;50.656;13.064;2023-05-20T13:13:58;12.63;;;9.63;;
19089;SDS011;9677;50.656;13.064;2023-05-20T13:19:28;11.37;;;10.03;;
19089;SDS011;9677;50.656;13.064;2023-05-20T13:21:56;11.67;;;10.47;;
19089;SDS011;9677;50.656;13.064;2023-05-20T13:27:11;11.40;;;10.30;;
19089;SDS011;9677;50.656;13.064;2023-05-20T13:29:41;11.63;;;10.43;;
19089;SDS011;9677;50.656;13.064;2023-05-20T13:32:11;10.93;;;9.90;;
19089;SDS011;9677;50.656;13.064;2023-05-20T13:34:39;11.43;;;10.30;;
19089;SDS011;9677;50.656;13.064;2023-05-20T13:37:07;11.83;;;10.00;;
19089;SDS011;9677;50.656;13.064;2023-05-20T13:39:36;10.97;;;9.87;;
19089;SDS011;9677;50.656;13.064;2023-05-20T13:42:10;14.20;;;10.30;;
19089;SDS011;9677;50.656;13.064;2023-05-20T13:44:42;11.00;;;9.90;;
19089;SDS011;9677;50.656;13.064;2023-05-20T13:47:10;11.07;;;9.97;;
19089;SDS011;9677;50.656;13.064;2023-05-20T13:49:39;11.10;;;10.00;;
19089;SDS011;9677;50.656;13.064;2023-05-20T13:52:07;11.30;;;10.20;;
19089;SDS011;9677;50.656;13.064;2023-05-20T13:54:36;11.27;;;10.17;;
19089;SDS011;9677;50.656;13.064;2023-05-20T13:57:05;11.03;;;9.93;;
19089;SDS011;9677;50.656;13.064;2023-05-20T13:59:34;10.80;;;9.80;;
19089;SDS011;9677;50.656;13.064;2023-05-20T14:02:04;11.10;;;10.00;;
19089;SDS011;9677;50.656;13.064;2023-05-20T14:04:33;11.97;;;9.87;;
19089;SDS011;9677;50.656;13.064;2023-05-20T14:07:03;11.43;;;10.23;;
19089;SDS011;9677;50.656;13.064;2023-05-20T14:09:35;11.20;;;10.00;;
19089;SDS011;9677;50.656;13.064;2023-05-20T14:12:03;17.40;;;10.07;;
19089;SDS011;9677;50.656;13.064;2023-05-20T14:14:32;11.13;;;10.03;;
19089;SDS011;9677;50.656;13.064;2023-05-20T14:17:00;10.60;;;9.60;;
19089;SDS011;9677;50.656;13.064;2023-05-20T14:19:29;11.23;;;10.10;;
19089;SDS011;9677;50.656;13.064;2023-05-20T14:21:58;11.20;;;10.10;;
19089;SDS011;9677;50.656;13.064;2023-05-20T14:24:26;11.47;;;10.27;;
19089;SDS011;9677;50.656;13.064;2023-05-20T14:26:54;11.00;;;9.90;;
19089;SDS011;9677;50.656;13.064;2023-05-20T14:29:22;11.10;;;10.00;;
19089;SDS011;9677;50.656;13.064;2023-05-20T14:31:50;11.30;;;10.07;;
19089;SDS011;9677;50.656;13.064;2023-05-20T14:34:19;11.87;;;9.90;;
19089;SDS011;9677;50.656;13.064;2023-05-20T14:36:49;10.80;;;9.80;;
19089;SDS011;9677;50.656;13.064;2023-05-20T14:39:17;10.73;;;9.73;;
19089;SDS011;9677;50.656;13.064;2023-05-20T14:41:45;11.27;;;10.17;;
19089;SDS011;9677;50.656;13.064;2023-05-20T14:44:13;11.63;;;10.43;;
19089;SDS011;9677;50.656;13.064;2023-05-20T14:46:41;12.37;;;10.30;;
19089;SDS011;9677;50.656;13.064;2023-05-20T14:49:09;11.10;;;10.00;;
19089;SDS011;9677;50.656;13.064;2023-05-20T14:51:37;11.23;;;10.13;;
19089;SDS011;9677;50.656;13.064;2023-05-20T14:54:06;11.50;;;10.30;;